createdAt,value
2022-08-19T00:02:36.544Z,7.25
2022-08-19T00:05:05.167Z,7.50
2022-08-19T00:07:32.056Z,8.75
2022-08-19T00:09:58.949Z,8.05
2022-08-19T00:12:26.084Z,8.40
2022-08-19T00:14:54.997Z,8.27
2022-08-19T00:17:21.927Z,8.53
2022-08-19T00:19:48.803Z,8.23
2022-08-19T00:22:16.810Z,9.02
2022-08-19T00:24:49.635Z,8.23
2022-08-19T00:27:25.643Z,8.13
2022-08-19T00:29:53.799Z,10.33
2022-08-19T00:32:21.324Z,8.88
2022-08-19T00:34:48.136Z,8.48
2022-08-19T00:37:15.004Z,9.70
2022-08-19T00:39:41.828Z,10.15
2022-08-19T00:42:08.808Z,9.73
2022-08-19T00:44:36.462Z,10.40
2022-08-19T00:47:03.443Z,9.52
2022-08-19T00:49:46.603Z,10.98
2022-08-19T00:52:17.823Z,8.60
2022-08-19T00:54:52.061Z,9.00
2022-08-19T00:57:23.821Z,9.30
2022-08-19T01:00:01.810Z,10.40
2022-08-19T01:02:31.076Z,8.00
2022-08-19T01:04:58.216Z,8.65
2022-08-19T01:07:25.268Z,8.75
2022-08-19T01:09:52.904Z,10.18
2022-08-19T01:12:19.785Z,9.70
2022-08-19T01:14:48.581Z,8.90
2022-08-19T01:17:17.049Z,9.10
2022-08-19T01:19:44.910Z,8.90
2022-08-19T01:22:16.842Z,9.00
2022-08-19T01:24:47.439Z,8.55
2022-08-19T01:27:17.761Z,8.48
2022-08-19T01:29:46.232Z,8.80
2022-08-19T01:32:32.299Z,8.65
2022-08-19T01:35:02.704Z,8.70
2022-08-19T01:37:30.363Z,8.80
2022-08-19T01:39:57.785Z,8.55
2022-08-19T01:42:29.968Z,8.77
2022-08-19T01:44:57.364Z,9.40
2022-08-19T01:47:24.214Z,8.60
2022-08-19T01:49:51.088Z,8.90
2022-08-19T01:52:18.045Z,9.25
2022-08-19T01:54:45.118Z,9.48
2022-08-19T01:57:15.145Z,9.43
2022-08-19T01:59:44.352Z,8.80
2022-08-19T02:02:11.533Z,9.30
2022-08-19T02:04:39.497Z,9.52
2022-08-19T02:07:08.717Z,9.32
2022-08-19T02:09:36.679Z,9.25
2022-08-19T02:12:04.867Z,9.05
2022-08-19T02:14:31.840Z,8.90
2022-08-19T02:16:58.817Z,8.68
2022-08-19T02:19:25.677Z,10.20
2022-08-19T02:21:52.685Z,11.00
2022-08-19T02:24:19.617Z,10.90
2022-08-19T02:26:46.539Z,10.43
2022-08-19T02:29:13.444Z,10.68
2022-08-19T02:31:40.514Z,9.43
2022-08-19T02:34:07.539Z,9.30
2022-08-19T02:36:34.518Z,10.30
2022-08-19T02:39:01.503Z,9.60
2022-08-19T02:41:33.517Z,9.40
2022-08-19T02:44:26.497Z,9.60
2022-08-19T02:46:52.867Z,9.65
2022-08-19T02:49:20.756Z,9.55
2022-08-19T02:51:48.314Z,10.25
2022-08-19T02:54:15.973Z,9.55
2022-08-19T02:56:44.513Z,9.52
2022-08-19T02:59:12.358Z,9.57
2022-08-19T03:01:42.058Z,9.80
2022-08-19T03:04:10.893Z,9.77
2022-08-19T03:06:39.646Z,10.13
2022-08-19T03:09:06.569Z,9.70
2022-08-19T03:11:33.871Z,9.43
2022-08-19T03:14:02.118Z,10.00
2022-08-19T03:16:33.467Z,9.93
2022-08-19T03:19:01.552Z,9.43
2022-08-19T03:21:32.662Z,9.52
2022-08-19T03:24:03.217Z,10.27
2022-08-19T03:26:30.708Z,10.15
2022-08-19T03:28:59.047Z,10.02
2022-08-19T03:31:44.762Z,10.47
2022-08-19T03:34:29.914Z,10.25
2022-08-19T03:36:59.481Z,9.98
2022-08-19T03:39:27.446Z,11.00
2022-08-19T03:42:32.205Z,10.18
2022-08-19T03:44:45.961Z,10.43
2022-08-19T03:47:16.797Z,10.52
2022-08-19T03:49:44.249Z,10.37
2022-08-19T03:52:11.435Z,10.30
2022-08-19T03:54:39.361Z,11.00
2022-08-19T03:57:07.255Z,10.65
2022-08-19T03:59:36.774Z,10.77
2022-08-19T04:02:10.170Z,10.43
2022-08-19T04:04:39.098Z,10.70
2022-08-19T04:07:06.594Z,11.15
2022-08-19T04:09:35.658Z,11.23
2022-08-19T04:12:03.074Z,10.50
2022-08-19T04:14:34.789Z,11.18
2022-08-19T04:17:05.455Z,10.30
2022-08-19T04:19:34.621Z,10.52
2022-08-19T04:22:01.722Z,10.60
2022-08-19T04:24:28.652Z,10.80
2022-08-19T04:26:55.616Z,11.70
2022-08-19T04:29:26.217Z,11.07
2022-08-19T04:31:56.549Z,11.07
2022-08-19T04:34:26.556Z,11.60
2022-08-19T04:36:58.124Z,11.27
2022-08-19T04:39:49.008Z,12.30
2022-08-19T04:42:37.044Z,12.77
2022-08-19T04:45:06.434Z,12.60
2022-08-19T04:47:49.275Z,12.80
2022-08-19T04:50:26.778Z,12.18
2022-08-19T04:52:54.281Z,12.15
2022-08-19T04:55:21.432Z,12.38
2022-08-19T04:57:48.568Z,12.25
2022-08-19T05:00:15.930Z,12.10
2022-08-19T05:02:42.871Z,12.30
2022-08-19T05:05:09.978Z,12.10
2022-08-19T05:07:37.260Z,12.73
2022-08-19T05:10:06.518Z,12.30
2022-08-19T05:12:33.865Z,12.73
2022-08-19T05:15:01.781Z,12.13
2022-08-19T05:17:33.322Z,12.45
2022-08-19T05:20:23.413Z,12.40
2022-08-19T05:22:50.481Z,12.40
2022-08-19T05:25:20.735Z,12.70
2022-08-19T05:27:48.942Z,12.95
2022-08-19T05:30:16.714Z,11.88
2022-08-19T05:32:44.192Z,11.27
2022-08-19T05:35:12.471Z,12.52
2022-08-19T05:37:41.458Z,12.35
2022-08-19T05:40:10.187Z,12.05
2022-08-19T05:42:37.621Z,11.10
2022-08-19T05:45:05.469Z,11.20
2022-08-19T05:47:33.091Z,12.10
2022-08-19T05:50:00.325Z,12.80
2022-08-19T05:52:28.187Z,12.70
2022-08-19T05:54:56.841Z,12.13
2022-08-19T05:57:25.196Z,12.07
2022-08-19T05:59:57.839Z,11.80
2022-08-19T06:02:31.637Z,11.18
2022-08-19T06:04:58.948Z,11.50
2022-08-19T06:07:26.091Z,11.05
2022-08-19T06:09:59.062Z,11.00
2022-08-19T06:12:32.793Z,11.35
2022-08-19T06:15:06.144Z,10.80
2022-08-19T06:17:35.714Z,11.60
2022-08-19T06:20:09.772Z,11.90
2022-08-19T06:22:44.911Z,11.38
2022-08-19T06:25:13.245Z,11.23
2022-08-19T06:27:58.552Z,11.60
2022-08-19T06:30:28.469Z,10.70
2022-08-19T06:32:55.590Z,11.00
2022-08-19T06:35:22.570Z,10.60
2022-08-19T06:37:49.534Z,11.20
2022-08-19T06:40:16.594Z,11.18
2022-08-19T06:42:54.485Z,11.63
2022-08-19T06:45:24.626Z,11.68
2022-08-19T06:47:56.813Z,10.97
2022-08-19T06:50:26.878Z,11.68
2022-08-19T06:52:55.274Z,11.30
2022-08-19T06:55:22.497Z,11.60
2022-08-19T06:57:51.949Z,11.98
2022-08-19T07:00:19.111Z,12.35
2022-08-19T07:02:50.598Z,11.93
2022-08-19T07:05:24.453Z,12.15
2022-08-19T07:07:51.636Z,11.60
2022-08-19T07:10:19.401Z,11.18
2022-08-19T07:12:46.605Z,12.00
2022-08-19T07:15:13.649Z,12.67
2022-08-19T07:17:41.798Z,12.05
2022-08-19T07:20:10.378Z,11.30
2022-08-19T07:22:39.053Z,10.80
2022-08-19T07:25:08.382Z,10.43
2022-08-19T07:27:35.895Z,11.30
2022-08-19T07:30:03.890Z,11.93
2022-08-19T07:32:31.767Z,11.43
2022-08-19T07:35:01.645Z,11.97
2022-08-19T07:37:32.995Z,11.00
2022-08-19T07:40:02.313Z,11.10
2022-08-19T07:42:30.813Z,11.82
2022-08-19T07:44:59.177Z,11.13
2022-08-19T07:47:50.091Z,11.20
2022-08-19T07:50:13.280Z,12.40
2022-08-19T07:52:40.869Z,12.60
2022-08-19T07:55:11.469Z,12.00
2022-08-19T07:57:56.875Z,12.82
2022-08-19T08:00:24.390Z,13.20
2022-08-19T08:02:53.055Z,13.25
2022-08-19T08:05:43.859Z,13.77
2022-08-19T08:08:33.708Z,13.50
2022-08-19T08:11:01.792Z,13.40
2022-08-19T08:13:29.095Z,13.40
2022-08-19T08:15:57.703Z,14.00
2022-08-19T08:18:28.155Z,14.70
2022-08-19T08:20:58.661Z,14.27
2022-08-19T08:23:27.224Z,15.82
2022-08-19T08:25:57.647Z,14.77
2022-08-19T08:28:29.582Z,15.68
2022-08-19T08:30:57.650Z,15.05
2022-08-19T08:33:33.885Z,16.33
2022-08-19T08:36:05.637Z,14.80
2022-08-19T08:38:38.987Z,15.88
2022-08-19T08:41:31.049Z,16.55
2022-08-19T08:43:59.461Z,16.13
2022-08-19T08:46:42.676Z,16.38
2022-08-19T08:49:32.196Z,17.35
2022-08-19T08:52:07.298Z,16.30
2022-08-19T08:54:54.767Z,16.73
2022-08-19T08:57:29.211Z,17.20
2022-08-19T09:00:15.627Z,16.70
2022-08-19T09:02:43.951Z,16.67
2022-08-19T09:05:16.280Z,18.92
2022-08-19T09:08:04.018Z,18.80
2022-08-19T09:10:46.815Z,18.50
2022-08-19T09:13:32.263Z,18.10
2022-08-19T09:16:07.568Z,17.83
2022-08-19T09:18:52.994Z,18.55
2022-08-19T09:21:30.289Z,19.30
2022-08-19T09:24:00.439Z,19.53
2022-08-19T09:26:35.302Z,17.70
2022-08-19T09:29:15.028Z,18.95
2022-08-19T09:31:42.027Z,19.48
2022-08-19T09:34:21.043Z,19.05
2022-08-19T09:36:54.671Z,19.40
2022-08-19T09:39:22.696Z,19.83
2022-08-19T09:41:50.950Z,19.60
2022-08-19T09:44:19.001Z,18.70
2022-08-19T09:46:48.159Z,18.83
2022-08-19T09:49:18.389Z,19.02
2022-08-19T09:51:51.225Z,18.42
2022-08-19T09:54:24.238Z,18.00
2022-08-19T09:56:56.266Z,17.77
2022-08-19T09:59:23.817Z,18.42
2022-08-19T10:01:52.302Z,16.75
2022-08-19T10:04:22.257Z,17.45
2022-08-19T10:06:53.795Z,17.77
2022-08-19T10:09:33.751Z,17.33
2022-08-19T10:12:02.667Z,17.52
2022-08-19T10:14:30.905Z,17.88
2022-08-19T10:16:59.337Z,18.00
2022-08-19T10:19:27.006Z,17.63
2022-08-19T10:22:00.432Z,17.77
2022-08-19T10:24:28.904Z,17.17
2022-08-19T10:26:59.558Z,17.95
2022-08-19T10:29:32.483Z,18.48
2022-08-19T10:32:09.853Z,18.80
2022-08-19T10:34:48.106Z,18.00
2022-08-19T10:37:28.854Z,18.60
2022-08-19T10:39:58.827Z,18.67
2022-08-19T10:42:25.857Z,18.25
2022-08-19T10:44:52.821Z,18.80
2022-08-19T10:47:25.545Z,19.00
2022-08-19T10:50:13.245Z,18.45
2022-08-19T10:52:50.122Z,19.30
2022-08-19T10:55:39.575Z,18.98
2022-08-19T10:58:13.391Z,17.50
2022-08-19T11:00:41.433Z,19.00
2022-08-19T11:03:09.545Z,18.65
2022-08-19T11:05:40.459Z,18.58
2022-08-19T11:08:23.206Z,18.33
2022-08-19T11:11:01.508Z,18.13
2022-08-19T11:13:34.487Z,18.13
2022-08-19T11:16:07.387Z,17.92
2022-08-19T11:18:41.286Z,17.77
2022-08-19T11:21:12.637Z,19.15
2022-08-19T11:23:40.243Z,17.40
2022-08-19T11:26:07.814Z,17.48
2022-08-19T11:28:34.723Z,18.52
2022-08-19T11:31:02.337Z,17.23
2022-08-19T11:33:29.265Z,16.70
2022-08-19T11:35:59.405Z,17.75
2022-08-19T11:38:27.554Z,18.45
2022-08-19T11:41:02.944Z,17.40
2022-08-19T11:43:36.740Z,19.35
2022-08-19T11:46:10.876Z,20.52
2022-08-19T11:48:38.922Z,19.87
2022-08-19T11:51:09.617Z,20.40
2022-08-19T11:53:37.631Z,20.70
2022-08-19T11:56:06.708Z,21.40
2022-08-19T11:58:35.155Z,20.13
2022-08-19T12:01:02.461Z,19.27
2022-08-19T12:03:29.465Z,20.40
2022-08-19T12:05:56.382Z,17.67
2022-08-19T12:08:23.548Z,19.33
2022-08-19T12:10:50.430Z,17.85
2022-08-19T12:13:19.540Z,18.85
2022-08-19T12:15:48.209Z,17.17
2022-08-19T12:18:15.893Z,16.50
2022-08-19T12:20:44.202Z,16.60
2022-08-19T12:23:11.606Z,15.95
2022-08-19T12:25:49.325Z,16.05
2022-08-19T12:28:16.755Z,15.15
2022-08-19T12:30:43.849Z,14.52
2022-08-19T12:33:10.852Z,13.63
2022-08-19T12:35:45.548Z,15.20
2022-08-19T12:38:14.039Z,14.88
2022-08-19T12:40:41.222Z,15.65
2022-08-19T12:43:09.140Z,14.60
2022-08-19T12:45:37.095Z,14.47
2022-08-19T12:48:33.971Z,13.13
2022-08-19T12:50:52.694Z,14.23
2022-08-19T12:53:19.528Z,13.13
2022-08-19T12:55:46.482Z,14.50
2022-08-19T12:58:13.563Z,13.57
2022-08-19T13:00:41.037Z,13.50
2022-08-19T13:03:07.907Z,13.52
2022-08-19T13:05:35.260Z,14.30
2022-08-19T13:08:02.604Z,14.20
2022-08-19T13:10:35.795Z,14.02
2022-08-19T13:13:08.567Z,13.87
2022-08-19T13:15:38.502Z,14.07
2022-08-19T13:18:05.571Z,14.18
2022-08-19T13:20:32.490Z,13.97
2022-08-19T13:22:59.595Z,12.88
2022-08-19T13:25:26.518Z,13.77
2022-08-19T13:27:53.916Z,14.50
2022-08-19T13:30:40.522Z,14.80
2022-08-19T13:33:16.856Z,13.10
2022-08-19T13:35:50.494Z,12.80
2022-08-19T13:38:21.382Z,13.93
2022-08-19T13:40:50.601Z,13.45
2022-08-19T13:43:23.417Z,12.50
2022-08-19T13:45:56.355Z,12.60
2022-08-19T13:48:26.213Z,12.70
2022-08-19T13:50:53.254Z,12.50
2022-08-19T13:53:20.281Z,11.55
2022-08-19T13:55:47.563Z,11.75
2022-08-19T13:58:15.446Z,11.63
2022-08-19T14:00:45.421Z,11.23
2022-08-19T14:03:12.728Z,11.13
2022-08-19T14:05:40.059Z,10.20
2022-08-19T14:08:07.209Z,10.13
2022-08-19T14:10:34.290Z,9.63
2022-08-19T14:13:04.262Z,9.60
2022-08-19T14:15:32.364Z,8.75
2022-08-19T14:17:59.476Z,10.20
2022-08-19T14:20:27.457Z,9.50
2022-08-19T14:22:55.732Z,9.33
2022-08-19T14:25:26.157Z,9.80
2022-08-19T14:27:53.458Z,9.50
2022-08-19T14:30:32.782Z,9.90
2022-08-19T14:33:02.316Z,9.57
2022-08-19T14:35:30.803Z,9.23
2022-08-19T14:37:59.055Z,9.80
2022-08-19T14:40:29.494Z,9.60
2022-08-19T14:43:00.200Z,9.50
2022-08-19T14:45:28.652Z,10.63
2022-08-19T14:47:56.532Z,10.17
2022-08-19T14:50:23.741Z,9.82
2022-08-19T14:52:52.740Z,10.30
2022-08-19T14:55:19.803Z,10.32
2022-08-19T14:57:46.775Z,10.48
2022-08-19T15:00:14.547Z,9.40
2022-08-19T15:02:42.852Z,9.88
2022-08-19T15:05:09.933Z,9.60
2022-08-19T15:07:38.129Z,9.80
2022-08-19T15:10:07.849Z,10.15
2022-08-19T15:12:41.112Z,9.20
2022-08-19T15:15:13.689Z,10.52
2022-08-19T15:17:43.531Z,10.48
2022-08-19T15:20:15.524Z,9.80
2022-08-19T15:22:43.219Z,9.82
2022-08-19T15:25:12.783Z,10.30
2022-08-19T15:27:41.760Z,10.35
2022-08-19T15:30:09.927Z,10.45
2022-08-19T15:32:38.551Z,9.93
2022-08-19T15:35:07.988Z,9.23
2022-08-19T15:37:37.298Z,9.70
2022-08-19T15:40:06.553Z,9.90
2022-08-19T15:42:35.738Z,9.88
2022-08-19T15:45:02.859Z,9.50
2022-08-19T15:47:34.618Z,9.40
2022-08-19T15:50:11.301Z,9.75
2022-08-19T15:52:49.985Z,9.45
2022-08-19T15:55:33.736Z,9.50
2022-08-19T15:58:28.523Z,9.27
2022-08-19T16:01:26.923Z,9.70
2022-08-19T16:04:15.693Z,9.55
2022-08-19T16:06:54.611Z,9.32
2022-08-19T16:09:27.620Z,9.23
2022-08-19T16:12:02.379Z,9.27
2022-08-19T16:14:32.691Z,9.38
2022-08-19T16:16:59.885Z,9.70
2022-08-19T16:19:27.415Z,9.63
2022-08-19T16:21:56.794Z,9.60
2022-08-19T16:24:26.060Z,9.95
2022-08-19T16:26:53.313Z,10.10
2022-08-19T16:29:34.649Z,9.52
2022-08-19T16:32:11.545Z,8.95
2022-08-19T16:34:40.567Z,8.85
2022-08-19T16:37:08.105Z,9.48
2022-08-19T16:39:35.126Z,8.70
2022-08-19T16:42:02.165Z,9.00
2022-08-19T16:44:30.038Z,8.95
2022-08-19T16:46:59.819Z,8.57
2022-08-19T16:49:52.379Z,9.70
2022-08-19T16:52:19.914Z,8.32
2022-08-19T16:54:47.811Z,8.95
2022-08-19T16:57:14.788Z,9.65
2022-08-19T16:59:43.774Z,8.70
2022-08-19T17:02:22.546Z,7.82
2022-08-19T17:04:57.750Z,8.60
2022-08-19T17:07:33.151Z,8.80
2022-08-19T17:10:02.123Z,8.43
2022-08-19T17:12:32.367Z,8.70
2022-08-19T17:15:01.114Z,8.45
2022-08-19T17:17:29.509Z,8.80
2022-08-19T17:20:01.188Z,8.40
2022-08-19T17:22:28.542Z,9.02
2022-08-19T17:24:56.405Z,9.00
2022-08-19T17:27:26.450Z,8.50
2022-08-19T17:29:53.504Z,8.48
2022-08-19T17:32:24.722Z,8.60
2022-08-19T17:34:54.202Z,8.90
2022-08-19T17:37:21.353Z,8.40
2022-08-19T17:39:48.369Z,8.15
2022-08-19T17:42:15.311Z,8.10
2022-08-19T17:44:42.269Z,7.43
2022-08-19T17:47:13.015Z,9.07
2022-08-19T17:49:39.978Z,9.10
2022-08-19T17:52:09.968Z,8.50
2022-08-19T17:54:37.321Z,9.20
2022-08-19T17:57:04.437Z,9.20
2022-08-19T17:59:31.458Z,9.10
2022-08-19T18:02:00.067Z,9.23
2022-08-19T18:04:29.829Z,9.15
2022-08-19T18:06:57.358Z,9.30
2022-08-19T18:09:26.942Z,9.55
2022-08-19T18:11:56.979Z,9.70
2022-08-19T18:14:32.973Z,9.27
2022-08-19T18:17:09.449Z,9.40
2022-08-19T18:19:43.396Z,9.45
2022-08-19T18:22:29.943Z,9.23
2022-08-19T18:24:58.295Z,9.10
2022-08-19T18:27:27.141Z,10.00
2022-08-19T18:29:59.277Z,9.52
2022-08-19T18:32:31.725Z,9.60
2022-08-19T18:35:04.745Z,10.20
2022-08-19T18:37:31.666Z,9.63
2022-08-19T18:40:16.967Z,10.57
2022-08-19T18:43:04.608Z,10.30
2022-08-19T18:45:50.529Z,9.63
2022-08-19T18:48:35.856Z,10.52
2022-08-19T18:51:03.003Z,9.63
2022-08-19T18:53:32.978Z,9.85
2022-08-19T18:56:00.858Z,9.77
2022-08-19T18:58:34.687Z,10.40
2022-08-19T19:01:21.855Z,10.50
2022-08-19T19:03:52.944Z,10.27
2022-08-19T19:06:26.315Z,9.90
2022-08-19T19:08:55.123Z,9.90
2022-08-19T19:11:28.881Z,10.68
2022-08-19T19:13:56.299Z,10.73
2022-08-19T19:16:24.719Z,10.10
2022-08-19T19:18:52.748Z,10.20
2022-08-19T19:21:20.985Z,10.55
2022-08-19T19:23:47.918Z,11.15
2022-08-19T19:26:15.312Z,10.90
2022-08-19T19:28:45.544Z,10.25
2022-08-19T19:31:26.681Z,10.40
2022-08-19T19:33:55.548Z,10.77
2022-08-19T19:36:23.097Z,11.02
2022-08-19T19:38:50.316Z,11.07
2022-08-19T19:41:24.424Z,10.38
2022-08-19T19:44:10.072Z,10.80
2022-08-19T19:46:42.395Z,11.75
2022-08-19T19:49:10.378Z,11.32
2022-08-19T19:51:39.482Z,10.35
2022-08-19T19:54:13.571Z,11.00
2022-08-19T19:56:43.487Z,10.85
2022-08-19T19:59:10.609Z,10.87
2022-08-19T20:01:37.639Z,11.00
2022-08-19T20:04:04.989Z,11.50
2022-08-19T20:06:31.934Z,11.20
2022-08-19T20:09:08.195Z,10.40
2022-08-19T20:11:41.182Z,10.50
2022-08-19T20:14:19.950Z,9.90
2022-08-19T20:16:49.217Z,11.00
2022-08-19T20:19:19.453Z,11.07
2022-08-19T20:21:51.436Z,10.70
2022-08-19T20:24:31.358Z,11.65
2022-08-19T20:27:00.429Z,11.38
2022-08-19T20:29:39.432Z,10.40
2022-08-19T20:32:10.050Z,11.80
2022-08-19T20:34:37.287Z,11.45
2022-08-19T20:37:04.751Z,10.40
2022-08-19T20:39:31.691Z,10.70
2022-08-19T20:41:58.695Z,10.73
2022-08-19T20:44:25.721Z,11.07
2022-08-19T20:46:55.428Z,10.82
2022-08-19T20:49:27.051Z,10.40
2022-08-19T20:51:58.393Z,10.30
2022-08-19T20:54:26.088Z,10.77
2022-08-19T20:56:53.925Z,10.30
2022-08-19T20:59:22.093Z,10.40
2022-08-19T21:01:51.831Z,10.85
2022-08-19T21:04:20.374Z,9.93
2022-08-19T21:06:48.074Z,10.95
2022-08-19T21:09:15.373Z,11.27
2022-08-19T21:11:42.267Z,11.00
2022-08-19T21:14:09.181Z,11.17
2022-08-19T21:16:36.082Z,10.35
2022-08-19T21:19:04.843Z,10.32
2022-08-19T21:21:33.062Z,10.60
2022-08-19T21:24:00.036Z,10.32
2022-08-19T21:26:27.213Z,10.90
2022-08-19T21:28:54.168Z,10.70
2022-08-19T21:31:21.179Z,10.00
2022-08-19T21:33:48.281Z,10.40
2022-08-19T21:36:15.182Z,11.00
2022-08-19T21:38:42.114Z,10.52
2022-08-19T21:41:09.635Z,10.00
2022-08-19T21:43:37.917Z,10.80
2022-08-19T21:46:05.165Z,10.63
2022-08-19T21:48:32.851Z,10.50
2022-08-19T21:50:59.769Z,10.52
2022-08-19T21:53:34.267Z,10.90
2022-08-19T21:56:03.006Z,10.70
2022-08-19T21:58:30.729Z,10.88
2022-08-19T22:01:05.623Z,10.70
2022-08-19T22:03:37.453Z,10.88
2022-08-19T22:06:04.818Z,11.10
2022-08-19T22:08:32.014Z,10.60
2022-08-19T22:11:01.894Z,10.20
2022-08-19T22:13:31.005Z,10.70
2022-08-19T22:15:57.859Z,10.27
2022-08-19T22:18:24.812Z,11.40
2022-08-19T22:20:51.719Z,11.23
2022-08-19T22:23:18.701Z,10.35
2022-08-19T22:25:47.145Z,10.80
2022-08-19T22:28:18.748Z,10.35
2022-08-19T22:30:51.197Z,10.35
2022-08-19T22:33:21.262Z,10.65
2022-08-19T22:35:48.836Z,10.63
2022-08-19T22:38:15.944Z,10.03
2022-08-19T22:40:47.375Z,10.13
2022-08-19T22:43:24.318Z,9.90
2022-08-19T22:45:53.762Z,9.82
2022-08-19T22:48:24.160Z,9.80
2022-08-19T22:51:10.354Z,10.00
2022-08-19T22:53:40.147Z,10.37
2022-08-19T22:56:13.170Z,9.93
2022-08-19T22:58:42.438Z,9.70
2022-08-19T23:01:11.625Z,9.73
2022-08-19T23:03:50.953Z,9.50
2022-08-19T23:06:18.290Z,9.77
2022-08-19T23:08:45.236Z,9.75
2022-08-19T23:11:12.324Z,9.05
2022-08-19T23:13:41.157Z,9.40
2022-08-19T23:16:08.830Z,9.87
2022-08-19T23:18:35.841Z,8.82
2022-08-19T23:21:02.822Z,9.40
2022-08-19T23:23:29.874Z,8.48
2022-08-19T23:25:57.356Z,9.23
2022-08-19T23:28:43.012Z,8.68
2022-08-19T23:31:11.276Z,8.32
2022-08-19T23:33:51.785Z,8.60
2022-08-19T23:36:20.507Z,9.65
2022-08-19T23:38:49.167Z,7.80
2022-08-19T23:41:17.982Z,8.90
2022-08-19T23:43:45.837Z,8.85
2022-08-19T23:46:27.603Z,8.85
2022-08-19T23:48:56.558Z,7.47
2022-08-19T23:51:23.692Z,8.05
2022-08-19T23:53:50.622Z,8.60
2022-08-19T23:56:17.671Z,8.20
2022-08-19T23:58:45.519Z,8.33
